Time;durP1;ratioP1;P1;durP2;ratioP2;P2;SDS_P1;SDS_P2;PMS_P1;PMS_P2;Temp;Humidity;BMP_temperature;BMP_pressure;BME280_temperature;BME280_humidity;BME280_pressure;Samples;Min_cycle;Max_cycle;Signal;HPM_P1;HPM_P2
2022/03/18 00:01:21;;;;;;;9.15;3.45;;;4.10;99.90;;;;;;4994416;28;20525;-73
2022/03/18 00:03:46;;;;;;;8.43;2.80;;;4.10;99.90;;;;;;5003699;28;20124;-74
2022/03/18 00:06:16;;;;;;;6.88;3.08;;;4.10;99.90;;;;;;5014135;28;20084;-73
2022/03/18 00:08:42;;;;;;;8.00;3.40;;;4.10;99.90;;;;;;5029094;28;20079;-73
2022/03/18 00:11:08;;;;;;;10.05;3.45;;;4.10;99.90;;;;;;5013963;28;20041;-74
2022/03/18 00:13:34;;;;;;;7.50;3.03;;;4.10;99.90;;;;;;5027625;28;20537;-73
2022/03/18 00:16:00;;;;;;;10.65;3.00;;;4.00;99.90;;;;;;4995937;28;20065;-73
2022/03/18 00:18:26;;;;;;;7.55;2.67;;;4.00;99.90;;;;;;4997530;28;20042;-73
2022/03/18 00:20:51;;;;;;;10.57;3.10;;;3.90;99.90;;;;;;5028828;28;20061;-73
2022/03/18 00:23:17;;;;;;;8.40;2.60;;;4.00;99.90;;;;;;5012796;28;20041;-73
2022/03/18 00:25:43;;;;;;;10.43;3.75;;;3.90;99.90;;;;;;4996424;28;20060;-73
2022/03/18 00:28:08;;;;;;;10.35;3.22;;;3.90;99.90;;;;;;5013683;28;20038;-73
2022/03/18 00:30:34;;;;;;;9.00;2.97;;;3.90;99.90;;;;;;4997602;28;20116;-73
2022/03/18 00:33:00;;;;;;;9.48;3.63;;;4.00;99.90;;;;;;4995932;28;20165;-73
2022/03/18 00:35:25;;;;;;;9.80;3.40;;;4.00;99.90;;;;;;5011881;28;20042;-73
2022/03/18 00:37:51;;;;;;;8.93;2.63;;;4.00;99.90;;;;;;5012689;28;20041;-73
2022/03/18 00:40:16;;;;;;;9.50;3.30;;;3.90;99.90;;;;;;5011423;28;20065;-73
2022/03/18 00:42:42;;;;;;;9.63;3.58;;;3.90;99.90;;;;;;5010176;28;20042;-73
2022/03/18 00:45:08;;;;;;;10.15;3.17;;;3.90;99.90;;;;;;5005515;28;20045;-73
2022/03/18 00:53:02;;;;;;;11.43;4.55;;;3.80;99.90;;;;;;5010047;28;20046;-73
2022/03/18 00:55:28;;;;;;;13.65;4.93;;;3.80;99.90;;;;;;5007166;28;20422;-73
2022/03/18 00:57:53;;;;;;;12.73;4.70;;;3.80;99.90;;;;;;5013152;28;20049;-73
2022/03/18 01:00:19;;;;;;;9.63;3.78;;;3.80;99.90;;;;;;5010917;28;20120;-73
2022/03/18 01:02:44;;;;;;;12.57;3.40;;;3.90;99.90;;;;;;5011509;28;20554;-74
2022/03/18 01:05:10;;;;;;;12.52;3.60;;;3.80;99.90;;;;;;4996241;28;20034;-73
2022/03/18 01:07:35;;;;;;;14.75;4.72;;;3.70;99.90;;;;;;5012950;28;20095;-73
2022/03/18 01:10:01;;;;;;;16.02;3.85;;;3.60;99.90;;;;;;5011895;28;20438;-73
2022/03/18 01:12:27;;;;;;;10.57;3.47;;;3.60;99.90;;;;;;5012062;28;20038;-73
2022/03/18 01:14:53;;;;;;;10.80;4.30;;;3.60;99.90;;;;;;5012096;28;20443;-73
2022/03/18 01:17:18;;;;;;;12.95;3.97;;;3.60;99.90;;;;;;4996509;28;20046;-73
2022/03/18 01:19:44;;;;;;;10.55;3.63;;;3.60;99.90;;;;;;5011753;28;20040;-73
2022/03/18 01:22:10;;;;;;;10.00;3.72;;;3.60;99.90;;;;;;5012950;28;20077;-73
2022/03/18 01:24:39;;;;;;;11.93;3.53;;;3.60;99.90;;;;;;5011000;28;20088;-73
2022/03/18 01:27:05;;;;;;;12.07;3.80;;;3.60;99.90;;;;;;5012584;28;20073;-73
2022/03/18 01:29:31;;;;;;;11.68;3.90;;;3.60;99.90;;;;;;5011692;28;20491;-73
2022/03/18 01:31:57;;;;;;;11.93;4.05;;;3.50;99.90;;;;;;5011356;28;20071;-73
2022/03/18 01:34:23;;;;;;;10.82;4.20;;;3.50;99.90;;;;;;4976016;28;20102;-73
2022/03/18 01:36:49;;;;;;;11.68;4.25;;;3.50;99.90;;;;;;4992948;28;20046;-73
2022/03/18 01:39:15;;;;;;;10.65;3.97;;;3.50;99.90;;;;;;5010812;28;20121;-73
2022/03/18 01:41:41;;;;;;;10.45;3.67;;;3.50;99.90;;;;;;4995854;28;20046;-73
2022/03/18 01:44:11;;;;;;;15.07;4.22;;;3.50;99.90;;;;;;5011535;28;20439;-73
2022/03/18 01:46:37;;;;;;;10.32;4.45;;;3.50;99.90;;;;;;5011712;28;20065;-73
2022/03/18 01:49:04;;;;;;;12.32;4.35;;;3.40;99.90;;;;;;4993732;28;20042;-73
2022/03/18 01:51:29;;;;;;;11.20;4.95;;;3.40;99.90;;;;;;5027704;28;20046;-73
2022/03/18 01:54:55;;;;;;;8.48;3.90;;;3.40;99.90;;;;;;5005789;28;20042;-73
2022/03/18 01:56:50;;;;;;;13.00;4.47;;;3.40;99.90;;;;;;4982704;28;20045;-73
2022/03/18 01:59:16;;;;;;;10.40;4.13;;;3.40;99.90;;;;;;4995924;28;20056;-73
2022/03/18 02:01:42;;;;;;;10.05;4.50;;;3.30;99.90;;;;;;4994712;28;20125;-73
2022/03/18 02:04:09;;;;;;;11.93;4.32;;;3.40;99.90;;;;;;5011552;28;20037;-73
2022/03/18 02:06:35;;;;;;;12.30;4.00;;;3.40;99.90;;;;;;5004986;28;20034;-73
2022/03/18 02:09:01;;;;;;;11.15;4.35;;;3.40;99.90;;;;;;4995722;28;20049;-73
2022/03/18 02:11:27;;;;;;;11.35;4.55;;;3.40;99.90;;;;;;5011326;28;20049;-73
2022/03/18 02:13:57;;;;;;;11.68;4.18;;;3.30;99.90;;;;;;5012372;28;20034;-73
2022/03/18 02:16:22;;;;;;;9.20;4.38;;;3.30;99.90;;;;;;4995100;28;20044;-73
2022/03/18 02:18:48;;;;;;;10.75;4.90;;;3.30;99.90;;;;;;5012307;28;20042;-73
2022/03/18 02:21:14;;;;;;;13.07;4.85;;;3.30;99.90;;;;;;5008724;28;20038;-73
2022/03/18 02:23:40;;;;;;;12.52;4.82;;;3.30;99.90;;;;;;4995766;28;20038;-73
2022/03/18 02:26:06;;;;;;;11.63;5.68;;;3.30;99.90;;;;;;5027758;28;20533;-73
2022/03/18 02:28:31;;;;;;;13.60;5.60;;;3.40;99.90;;;;;;5011912;28;20041;-73
2022/03/18 02:30:57;;;;;;;12.77;5.65;;;3.30;99.90;;;;;;5010695;28;20033;-74
2022/03/18 02:33:23;;;;;;;13.07;5.07;;;3.40;99.90;;;;;;5011952;28;20129;-73
2022/03/18 02:35:54;;;;;;;11.63;5.05;;;3.30;99.90;;;;;;4994779;28;20125;-73
2022/03/18 02:38:20;;;;;;;12.57;5.60;;;3.30;99.90;;;;;;4995583;28;20084;-73
2022/03/18 02:40:46;;;;;;;15.23;5.88;;;3.30;99.90;;;;;;4994817;28;20410;-73
2022/03/18 02:43:11;;;;;;;11.93;5.43;;;3.30;99.90;;;;;;4995722;28;20079;-73
2022/03/18 02:45:37;;;;;;;12.25;5.25;;;3.30;99.90;;;;;;4997677;28;20045;-73
2022/03/18 02:48:03;;;;;;;12.63;5.60;;;3.30;99.90;;;;;;5014764;28;20182;-73
2022/03/18 02:50:28;;;;;;;12.55;5.15;;;3.20;99.90;;;;;;4997481;28;20130;-73
2022/03/18 02:52:54;;;;;;;13.30;5.68;;;3.30;99.90;;;;;;4999107;28;20467;-73
2022/03/18 02:55:21;;;;;;;14.05;5.13;;;3.20;99.90;;;;;;4998398;28;20121;-73
2022/03/18 02:57:47;;;;;;;14.00;5.35;;;3.20;99.90;;;;;;5018398;28;20057;-73
2022/03/18 03:00:12;;;;;;;10.63;4.78;;;3.20;99.90;;;;;;4983145;28;20038;-73
2022/03/18 03:02:38;;;;;;;10.90;5.43;;;3.30;99.90;;;;;;4999198;28;20034;-73
2022/03/18 03:08:01;;;;;;;12.18;5.07;;;3.30;99.90;;;;;;4977376;28;20104;-73
2022/03/18 03:10:36;;;;;;;13.27;5.13;;;3.20;99.90;;;;;;5010624;28;20037;-73
2022/03/18 03:13:06;;;;;;;12.60;5.50;;;3.20;99.90;;;;;;5031609;28;20046;-73
2022/03/18 03:15:31;;;;;;;10.63;4.65;;;3.20;99.90;;;;;;4998002;28;20070;-73
2022/03/18 03:17:57;;;;;;;11.32;5.15;;;3.30;99.90;;;;;;5015094;28;20566;-73
2022/03/18 03:20:23;;;;;;;12.70;4.90;;;3.20;99.90;;;;;;5013419;28;20056;-73
2022/03/18 03:22:48;;;;;;;11.60;5.32;;;3.30;99.90;;;;;;5014909;28;20517;-73
2022/03/18 03:25:14;;;;;;;12.88;5.55;;;3.20;99.90;;;;;;5013906;28;20050;-73
2022/03/18 03:27:39;;;;;;;11.38;5.05;;;3.20;99.90;;;;;;4997783;28;20429;-73
2022/03/18 03:30:07;;;;;;;10.27;4.68;;;3.20;99.90;;;;;;5013818;28;20038;-73
2022/03/18 03:32:33;;;;;;;11.07;4.90;;;3.20;99.90;;;;;;5014955;28;20033;-73
2022/03/18 03:34:59;;;;;;;11.07;4.53;;;3.20;99.90;;;;;;5014244;28;20034;-73
2022/03/18 03:37:26;;;;;;;11.23;5.35;;;3.20;99.90;;;;;;5014021;28;20482;-73
2022/03/18 03:39:53;;;;;;;11.88;4.70;;;3.10;99.90;;;;;;5014526;28;20045;-72
2022/03/18 03:42:19;;;;;;;10.35;5.00;;;3.10;99.90;;;;;;5013913;28;20046;-73
2022/03/18 03:44:45;;;;;;;11.10;5.68;;;3.00;99.90;;;;;;4998528;28;20041;-73
2022/03/18 03:47:14;;;;;;;14.02;5.53;;;3.00;99.90;;;;;;5013491;28;20046;-73
2022/03/18 03:49:40;;;;;;;10.10;5.07;;;3.00;99.90;;;;;;5014510;28;20066;-73
2022/03/18 03:52:08;;;;;;;12.25;4.50;;;3.00;99.90;;;;;;5010899;28;20080;-73
2022/03/18 03:54:35;;;;;;;10.63;4.82;;;3.00;99.90;;;;;;5012674;28;20052;-73
2022/03/18 03:57:00;;;;;;;11.18;4.85;;;3.00;99.90;;;;;;5012412;28;20072;-73
2022/03/18 03:59:26;;;;;;;12.50;5.45;;;2.90;99.90;;;;;;5014301;28;20486;-73
2022/03/18 04:01:51;;;;;;;11.48;5.25;;;2.80;99.90;;;;;;5013556;28;20049;-73
2022/03/18 04:04:17;;;;;;;10.57;4.95;;;2.80;99.90;;;;;;4997543;28;20048;-73
2022/03/18 04:06:43;;;;;;;12.93;4.68;;;2.80;99.90;;;;;;4997881;28;20046;-73
2022/03/18 04:09:08;;;;;;;10.60;4.90;;;2.90;99.90;;;;;;4993816;28;20042;-74
2022/03/18 04:11:34;;;;;;;13.70;5.70;;;2.80;99.90;;;;;;4997213;28;20505;-73
2022/03/18 04:14:00;;;;;;;10.63;5.05;;;2.80;99.90;;;;;;5013917;28;20473;-73
2022/03/18 04:16:25;;;;;;;9.95;5.30;;;2.90;99.90;;;;;;4996647;28;20037;-73
2022/03/18 04:18:51;;;;;;;11.63;5.60;;;2.80;99.90;;;;;;4997282;28;20041;-73
2022/03/18 04:21:16;;;;;;;12.48;5.82;;;2.80;99.90;;;;;;5013931;28;20037;-73
2022/03/18 04:23:42;;;;;;;10.27;4.75;;;2.80;99.90;;;;;;5010623;28;20412;-73
2022/03/18 04:26:07;;;;;;;14.10;5.45;;;2.80;99.90;;;;;;5013828;28;20046;-74
2022/03/18 04:28:33;;;;;;;11.00;5.32;;;2.80;99.90;;;;;;4996689;28;20042;-73
2022/03/18 04:30:59;;;;;;;12.10;5.32;;;2.80;99.90;;;;;;5013964;28;20049;-73
2022/03/18 04:33:24;;;;;;;10.65;5.35;;;2.80;99.90;;;;;;5012572;28;20038;-74
2022/03/18 04:35:51;;;;;;;11.52;5.63;;;2.80;99.90;;;;;;5013879;28;20042;-73
2022/03/18 04:38:17;;;;;;;12.75;5.65;;;2.80;99.90;;;;;;5012587;28;20038;-74
2022/03/18 04:40:42;;;;;;;11.45;5.60;;;2.90;99.90;;;;;;4996330;28;20075;-73
2022/03/18 04:43:08;;;;;;;10.50;5.10;;;2.90;99.90;;;;;;4996194;28;20088;-73
2022/03/18 04:45:34;;;;;;;12.07;5.50;;;2.90;99.90;;;;;;5012199;28;20038;-73
2022/03/18 04:47:59;;;;;;;10.65;5.47;;;2.90;99.90;;;;;;5013340;28;20099;-73
2022/03/18 04:50:25;;;;;;;13.18;6.38;;;2.90;99.90;;;;;;4995458;28;20042;-73
2022/03/18 04:52:51;;;;;;;15.00;6.38;;;2.90;99.90;;;;;;5010968;28;20042;-74
2022/03/18 04:55:16;;;;;;;12.25;6.15;;;2.90;99.90;;;;;;5012231;28;20398;-73
2022/03/18 04:57:42;;;;;;;13.15;6.15;;;2.90;99.90;;;;;;4997057;28;20510;-73
2022/03/18 05:00:09;;;;;;;14.00;5.70;;;2.80;99.90;;;;;;4993094;28;20446;-73
2022/03/18 05:02:38;;;;;;;14.98;6.50;;;2.80;99.90;;;;;;4993527;28;20046;-73
2022/03/18 05:05:08;;;;;;;13.13;5.80;;;2.80;99.90;;;;;;5012307;28;20042;-73
2022/03/18 05:07:34;;;;;;;14.88;6.07;;;2.80;99.90;;;;;;5009700;28;20045;-73
2022/03/18 05:10:00;;;;;;;13.68;5.78;;;2.80;99.90;;;;;;5028328;28;20438;-73
2022/03/18 05:12:28;;;;;;;12.23;5.22;;;2.80;99.90;;;;;;4995883;28;20072;-73
2022/03/18 05:14:54;;;;;;;10.68;5.13;;;2.90;99.90;;;;;;4996076;28;20442;-73
2022/03/18 05:17:20;;;;;;;12.07;5.88;;;2.80;99.90;;;;;;5013127;28;20034;-73
2022/03/18 05:19:46;;;;;;;13.45;5.82;;;2.80;99.90;;;;;;4995752;28;20493;-73
2022/03/18 05:22:11;;;;;;;12.23;6.05;;;2.80;99.90;;;;;;4996491;28;20042;-73
2022/03/18 05:24:37;;;;;;;12.43;6.45;;;2.80;99.90;;;;;;5011899;28;20125;-73
2022/03/18 05:27:03;;;;;;;10.75;5.45;;;2.90;99.90;;;;;;5012921;28;20044;-73
2022/03/18 05:29:30;;;;;;;11.55;5.90;;;2.80;99.90;;;;;;4991429;28;20034;-73
2022/03/18 05:31:57;;;;;;;12.18;5.53;;;2.70;99.90;;;;;;5007978;28;20117;-73
2022/03/18 05:34:23;;;;;;;10.90;5.47;;;2.60;99.90;;;;;;4996204;28;20129;-73
2022/03/18 05:36:49;;;;;;;10.45;4.72;;;2.70;99.90;;;;;;5011570;28;20555;-73
2022/03/18 05:39:15;;;;;;;11.80;5.07;;;2.70;99.90;;;;;;4997972;28;20034;-73
2022/03/18 05:41:43;;;;;;;10.85;4.60;;;2.70;99.90;;;;;;5012486;28;20046;-73
2022/03/18 05:44:09;;;;;;;12.38;5.35;;;2.70;99.90;;;;;;5028118;28;20671;-73
2022/03/18 05:46:35;;;;;;;10.05;4.80;;;2.60;99.90;;;;;;5012763;28;20042;-73
2022/03/18 05:49:01;;;;;;;10.60;5.55;;;2.60;99.90;;;;;;5011317;28;20490;-73
2022/03/18 05:51:27;;;;;;;11.10;5.68;;;2.60;99.90;;;;;;5012640;28;20069;-73
2022/03/18 05:53:53;;;;;;;14.55;5.70;;;2.60;99.90;;;;;;5009038;28;20049;-73
2022/03/18 05:59:06;;;;;;;12.20;6.50;;;2.60;99.90;;;;;;5027420;28;20045;-73
2022/03/18 06:01:34;;;;;;;12.15;5.60;;;2.60;99.90;;;;;;5011467;28;20042;-73
2022/03/18 06:04:01;;;;;;;12.55;6.30;;;2.60;99.90;;;;;;5012147;28;20038;-73
2022/03/18 06:06:27;;;;;;;10.20;5.75;;;2.60;99.90;;;;;;4994684;28;20040;-73
2022/03/18 06:11:48;;;;;;;11.82;6.47;;;2.50;99.90;;;;;;5011563;28;20438;-73
2022/03/18 06:14:15;;;;;;;9.73;5.00;;;2.60;99.90;;;;;;4995652;28;20057;-73
2022/03/18 06:16:40;;;;;;;9.73;4.78;;;2.70;99.90;;;;;;5011012;28;20160;-73
2022/03/18 06:19:07;;;;;;;11.48;4.57;;;2.70;99.90;;;;;;4995742;28;20129;-73
2022/03/18 06:21:32;;;;;;;9.88;4.93;;;2.70;99.90;;;;;;5031422;28;20038;-74
2022/03/18 06:23:58;;;;;;;9.95;5.30;;;2.70;99.90;;;;;;4998867;28;20096;-73
2022/03/18 06:26:23;;;;;;;11.52;5.35;;;2.70;99.90;;;;;;4998931;28;20045;-74
2022/03/18 06:28:49;;;;;;;11.02;5.80;;;2.70;99.90;;;;;;5015979;28;20089;-73
2022/03/18 06:31:15;;;;;;;25.40;10.60;;;2.70;99.90;;;;;;5014046;28;20044;-73
2022/03/18 06:33:44;;;;;;;29.60;13.80;;;2.80;99.90;;;;;;5032330;28;20037;-74
2022/03/18 06:36:11;;;;;;;22.33;10.93;;;2.80;99.90;;;;;;5014919;28;20038;-74
2022/03/18 06:38:36;;;;;;;18.95;9.20;;;2.80;99.90;;;;;;5032345;28;20034;-73
2022/03/18 06:41:02;;;;;;;16.25;8.05;;;2.80;99.90;;;;;;5012761;28;20119;-73
2022/03/18 06:43:27;;;;;;;12.70;7.10;;;2.80;99.90;;;;;;5009457;28;20063;-74
2022/03/18 06:45:53;;;;;;;11.70;5.75;;;2.90;99.90;;;;;;5012641;28;20076;-73
2022/03/18 06:48:18;;;;;;;12.07;5.90;;;3.00;99.90;;;;;;5014933;28;20041;-73
2022/03/18 06:50:44;;;;;;;12.23;5.97;;;3.00;99.90;;;;;;4996337;28;20453;-73
2022/03/18 06:53:10;;;;;;;15.88;6.18;;;3.00;99.90;;;;;;5014458;28;20108;-73
2022/03/18 06:55:35;;;;;;;12.40;6.55;;;3.00;99.90;;;;;;4998328;28;20030;-73
2022/03/18 06:58:01;;;;;;;12.23;5.97;;;3.00;99.90;;;;;;5015355;28;20125;-73
2022/03/18 07:00:27;;;;;;;15.05;6.95;;;3.10;99.90;;;;;;5014124;28;20490;-73
2022/03/18 07:02:53;;;;;;;14.50;6.60;;;3.10;99.90;;;;;;5015612;28;20191;-73
2022/03/18 07:05:19;;;;;;;12.50;6.47;;;3.20;99.90;;;;;;4995746;28;20042;-73
2022/03/18 07:07:44;;;;;;;10.95;6.97;;;3.30;99.90;;;;;;5014113;28;20065;-73
2022/03/18 07:10:12;;;;;;;13.18;7.60;;;3.40;99.90;;;;;;5015287;28;20073;-74
2022/03/18 07:12:38;;;;;;;11.85;6.90;;;3.50;99.90;;;;;;4997984;28;20033;-73
2022/03/18 07:15:05;;;;;;;13.02;7.57;;;3.50;99.90;;;;;;4997750;28;20034;-73
2022/03/18 07:20:14;;;;;;;15.80;8.15;;;3.60;99.90;;;;;;5013043;28;20464;-74
2022/03/18 07:22:41;;;;;;;17.63;8.55;;;3.70;99.90;;;;;;4998556;28;20080;-74
2022/03/18 07:25:08;;;;;;;16.25;8.93;;;3.80;99.90;;;;;;5013084;28;20050;-74
2022/03/18 07:27:33;;;;;;;14.63;9.85;;;4.00;99.90;;;;;;5013309;28;20078;-74
2022/03/18 07:29:59;;;;;;;17.73;10.15;;;4.10;99.90;;;;;;4997360;28;20518;-74
2022/03/18 07:32:25;;;;;;;16.88;9.90;;;4.20;99.90;;;;;;5014739;28;20038;-73
2022/03/18 07:34:50;;;;;;;17.42;10.38;;;4.30;99.90;;;;;;5012776;28;20117;-74
2022/03/18 07:37:16;;;;;;;17.13;10.02;;;4.40;99.90;;;;;;4997962;28;20076;-74
2022/03/18 07:39:42;;;;;;;16.13;9.77;;;4.50;99.90;;;;;;5013604;28;20040;-74
2022/03/18 07:42:07;;;;;;;18.00;10.60;;;4.70;99.90;;;;;;5014361;28;20152;-73
2022/03/18 07:44:36;;;;;;;18.52;9.93;;;4.80;99.90;;;;;;5013557;28;20046;-74
2022/03/18 07:47:02;;;;;;;16.70;10.77;;;4.90;99.90;;;;;;5014498;28;20531;-73
2022/03/18 07:49:28;;;;;;;18.25;11.32;;;5.00;99.90;;;;;;5013394;28;20048;-74
2022/03/18 07:51:53;;;;;;;17.63;10.88;;;5.10;99.90;;;;;;5013302;28;20406;-74
2022/03/18 07:54:19;;;;;;;22.48;13.13;;;5.30;99.90;;;;;;4991251;28;20590;-74
2022/03/18 07:56:44;;;;;;;21.33;12.23;;;5.40;99.90;;;;;;5010964;28;20034;-74
2022/03/18 07:59:10;;;;;;;22.83;13.32;;;5.50;99.90;;;;;;5001303;28;20446;-74
2022/03/18 08:01:38;;;;;;;21.63;14.13;;;5.60;99.90;;;;;;4997997;28;20453;-74
2022/03/18 08:04:03;;;;;;;21.13;13.38;;;5.60;99.90;;;;;;4993969;28;20053;-74
2022/03/18 08:06:29;;;;;;;20.38;13.18;;;5.70;99.90;;;;;;4978831;28;20042;-74
2022/03/18 08:08:55;;;;;;;20.77;13.85;;;5.80;99.90;;;;;;5011718;28;20045;-74
2022/03/18 08:11:20;;;;;;;21.60;13.55;;;5.90;99.90;;;;;;5013464;28;20440;-74
2022/03/18 08:13:49;;;;;;;22.65;15.07;;;5.90;99.90;;;;;;5013546;28;20084;-74
2022/03/18 08:16:15;;;;;;;21.05;13.82;;;6.10;99.90;;;;;;5013199;28;20048;-74
2022/03/18 08:18:41;;;;;;;19.30;12.60;;;6.10;99.90;;;;;;4997621;28;20046;-74
2022/03/18 08:21:07;;;;;;;24.58;14.68;;;6.30;99.90;;;;;;5011573;28;20033;-74
2022/03/18 08:23:33;;;;;;;23.25;13.60;;;6.40;99.90;;;;;;5013263;28;20135;-74
2022/03/18 08:25:59;;;;;;;25.05;14.32;;;6.50;99.90;;;;;;5028935;28;20380;-74
2022/03/18 08:28:24;;;;;;;25.52;15.10;;;6.60;99.90;;;;;;5012967;28;20045;-74
2022/03/18 08:30:50;;;;;;;27.80;15.45;;;6.80;99.90;;;;;;4996241;28;20410;-74
2022/03/18 08:33:16;;;;;;;23.77;14.05;;;7.00;99.90;;;;;;5010759;28;20034;-74
2022/03/18 08:35:42;;;;;;;22.75;14.90;;;7.20;99.90;;;;;;5016899;28;20033;-75
2022/03/18 08:38:09;;;;;;;18.75;13.25;;;7.30;99.90;;;;;;4986156;28;20048;-75
2022/03/18 08:40:36;;;;;;;22.48;13.65;;;7.40;99.90;;;;;;5010988;28;20510;-74
2022/03/18 08:43:04;;;;;;;24.35;13.82;;;7.60;99.90;;;;;;4994935;28;20088;-74
2022/03/18 08:45:31;;;;;;;20.48;12.15;;;7.70;99.90;;;;;;5008660;28;20046;-74
2022/03/18 08:47:57;;;;;;;23.98;12.90;;;7.90;99.90;;;;;;5008601;28;20034;-74
2022/03/18 08:50:23;;;;;;;24.13;12.43;;;8.10;99.90;;;;;;4994309;28;20041;-74
2022/03/18 08:52:52;;;;;;;21.60;12.40;;;8.20;99.90;;;;;;5028462;28;20041;-74
2022/03/18 08:55:18;;;;;;;18.42;11.55;;;8.40;99.90;;;;;;5006562;28;20038;-74
2022/03/18 08:57:43;;;;;;;17.60;11.73;;;8.60;99.90;;;;;;5003252;28;20173;-74
2022/03/18 09:00:11;;;;;;;18.83;11.05;;;8.80;99.90;;;;;;5005856;28;20135;-75
2022/03/18 09:02:38;;;;;;;22.23;12.60;;;8.90;99.90;;;;;;4992668;28;20092;-74
2022/03/18 09:05:05;;;;;;;20.40;10.68;;;9.10;99.90;;;;;;4994438;28;20057;-74
2022/03/18 09:07:32;;;;;;;20.95;11.68;;;9.20;99.90;;;;;;4993702;28;20038;-75
2022/03/18 09:09:58;;;;;;;23.13;10.43;;;9.30;99.90;;;;;;5007119;28;20045;-75
2022/03/18 09:12:24;;;;;;;18.95;10.40;;;9.40;99.90;;;;;;5003824;28;20038;-75
2022/03/18 09:14:49;;;;;;;19.15;10.40;;;9.40;99.90;;;;;;4993889;28;20037;-75
2022/03/18 09:17:15;;;;;;;17.75;10.65;;;9.70;99.90;;;;;;5010555;28;20041;-75
2022/03/18 09:19:42;;;;;;;20.10;10.63;;;9.80;99.90;;;;;;5008682;28;20030;-75
2022/03/18 09:22:08;;;;;;;22.48;11.63;;;9.90;99.90;;;;;;4995292;28;20128;-75
2022/03/18 09:24:34;;;;;;;20.40;10.20;;;9.90;99.90;;;;;;5024845;28;20122;-75
2022/03/18 09:27:01;;;;;;;21.13;10.60;;;10.10;99.90;;;;;;5005456;28;20045;-75
2022/03/18 09:29:26;;;;;;;20.42;10.32;;;10.10;99.90;;;;;;5006421;28;20475;-75
2022/03/18 09:31:53;;;;;;;18.27;9.68;;;10.20;99.90;;;;;;5008855;28;20073;-75
2022/03/18 09:34:24;;;;;;;15.65;9.18;;;10.40;99.90;;;;;;5010381;28;20038;-75
2022/03/18 09:36:58;;;;;;;20.50;9.90;;;10.60;99.90;;;;;;5008046;28;20045;-75
2022/03/18 09:39:26;;;;;;;22.58;9.57;;;10.70;99.90;;;;;;5009701;28;20065;-75
2022/03/18 09:41:53;;;;;;;18.38;10.40;;;10.80;99.90;;;;;;5009831;28;20487;-75
2022/03/18 09:44:18;;;;;;;18.80;10.13;;;10.90;99.90;;;;;;4994153;28;20398;-75
2022/03/18 09:46:51;;;;;;;17.48;9.70;;;11.10;99.90;;;;;;5008307;28;20048;-75
2022/03/18 09:49:18;;;;;;;19.48;10.35;;;11.20;99.90;;;;;;5001811;28;20422;-75
2022/03/18 09:51:46;;;;;;;19.73;10.30;;;11.40;99.90;;;;;;5009269;28;20030;-75
2022/03/18 09:54:12;;;;;;;19.42;11.10;;;11.50;99.90;;;;;;4994096;28;20034;-75
2022/03/18 09:56:43;;;;;;;15.95;9.70;;;11.60;99.90;;;;;;5011687;28;20073;-75
2022/03/18 09:59:09;;;;;;;17.35;9.88;;;11.60;99.90;;;;;;4995988;28;20042;-75
2022/03/18 10:01:35;;;;;;;15.00;10.07;;;11.70;99.90;;;;;;5011376;28;20049;-75
2022/03/18 10:04:07;;;;;;;21.10;11.52;;;11.60;99.90;;;;;;4993674;28;20033;-75
2022/03/18 10:06:34;;;;;;;;;;;11.60;99.90;;;;;;5011885;28;20049;-75
2022/03/18 10:09:00;;;;;;;19.80;10.38;;;11.60;99.90;;;;;;5007153;28;19929;-75
2022/03/18 10:11:28;;;;;;;17.48;10.20;;;11.70;99.90;;;;;;5003322;28;20117;-75
2022/03/18 10:14:02;;;;;;;19.08;10.52;;;11.70;99.90;;;;;;5010469;28;20034;-75
2022/03/18 10:16:43;;;;;;;20.83;10.23;;;11.90;99.90;;;;;;5011500;28;20037;-75
2022/03/18 10:19:16;;;;;;;18.02;11.32;;;12.00;99.90;;;;;;5007109;28;20080;-75
2022/03/18 10:22:00;;;;;;;20.38;10.70;;;12.10;99.90;;;;;;4995252;28;20042;-75
2022/03/18 10:24:30;;;;;;;19.05;10.55;;;12.20;99.90;;;;;;5000800;28;20089;-75
2022/03/18 10:27:15;;;;;;;17.95;9.40;;;12.10;99.90;;;;;;5010426;28;20410;-75
2022/03/18 10:29:41;;;;;;;17.27;9.98;;;12.00;99.90;;;;;;5004789;28;20133;-75
2022/03/18 10:32:08;;;;;;;17.45;10.23;;;12.30;99.90;;;;;;4991181;28;20054;-75
2022/03/18 10:37:21;;;;;;;17.70;10.13;;;12.50;99.90;;;;;;5023362;28;20431;-75
2022/03/18 10:39:50;;;;;;;18.35;9.63;;;12.70;99.90;;;;;;5002998;28;20069;-75
2022/03/18 10:42:18;;;;;;;19.92;10.30;;;12.60;99.90;;;;;;5011601;28;20429;-75
2022/03/18 10:44:47;;;;;;;17.00;9.80;;;12.70;99.90;;;;;;5011384;28;20045;-75
2022/03/18 10:47:43;;;;;;;19.42;10.27;;;12.70;99.90;;;;;;4995106;28;20046;-75
2022/03/18 10:50:11;;;;;;;19.30;9.40;;;12.70;99.90;;;;;;5002916;28;20050;-75
2022/03/18 10:52:46;;;;;;;18.83;9.90;;;12.80;99.90;;;;;;4994982;28;20045;-75
2022/03/18 10:55:20;;;;;;;15.68;9.20;;;13.00;99.90;;;;;;4996398;28;20042;-75
2022/03/18 10:58:05;;;;;;;19.48;9.60;;;13.00;99.90;;;;;;4993407;28;20096;-75
2022/03/18 11:00:33;;;;;;;18.77;10.38;;;13.00;99.90;;;;;;4992836;28;20041;-75
2022/03/18 11:03:01;;;;;;;18.10;8.90;;;13.10;99.90;;;;;;4994734;28;20037;-75
2022/03/18 11:05:45;;;;;;;15.25;9.00;;;13.20;99.90;;;;;;5011060;28;20533;-75
2022/03/18 11:08:13;;;;;;;17.38;9.80;;;13.20;99.90;;;;;;5014225;28;20507;-75
2022/03/18 11:13:28;;;;;;;17.17;8.65;;;13.00;99.90;;;;;;5030295;28;20038;-75
2022/03/18 11:15:55;;;;;;;17.10;8.73;;;13.20;99.90;;;;;;5006707;28;20410;-75
2022/03/18 11:18:21;;;;;;;17.52;9.30;;;13.30;99.90;;;;;;4998893;28;20064;-75
2022/03/18 11:20:50;;;;;;;17.27;9.18;;;13.30;99.90;;;;;;5012300;28;20046;-76
2022/03/18 11:23:24;;;;;;;15.70;8.48;;;13.30;99.90;;;;;;5014598;28;20049;-75
2022/03/18 11:25:55;;;;;;;18.40;8.45;;;13.30;99.90;;;;;;5028181;28;20041;-75
2022/03/18 11:28:21;;;;;;;15.27;8.63;;;13.40;99.90;;;;;;5014359;28;20042;-75
2022/03/18 11:31:00;;;;;;;16.88;8.07;;;13.40;99.90;;;;;;4995931;28;20045;-75
2022/03/18 11:33:25;;;;;;;16.50;7.82;;;13.50;99.90;;;;;;5014056;28;20399;-75
2022/03/18 11:36:02;;;;;;;19.13;8.02;;;13.50;99.90;;;;;;5014435;28;20037;-75
2022/03/18 11:38:47;;;;;;;17.85;8.20;;;13.60;99.90;;;;;;4993819;28;20048;-75
2022/03/18 11:41:14;;;;;;;16.83;7.97;;;13.50;99.90;;;;;;4994011;28;20054;-75
2022/03/18 11:43:42;;;;;;;14.25;7.43;;;13.50;99.90;;;;;;4997533;28;20038;-75
2022/03/18 11:46:16;;;;;;;16.80;6.88;;;13.40;99.90;;;;;;5012927;28;20133;-75
2022/03/18 11:49:00;;;;;;;18.38;7.28;;;13.60;99.90;;;;;;4996112;28;20077;-75
2022/03/18 11:51:40;;;;;;;14.90;6.85;;;13.60;99.90;;;;;;5013310;28;20042;-75
2022/03/18 11:54:16;;;;;;;15.73;7.38;;;13.70;99.90;;;;;;5013958;28;20042;-76
2022/03/18 11:56:55;;;;;;;17.35;7.22;;;13.80;99.90;;;;;;5013191;28;20402;-75
2022/03/18 11:59:29;;;;;;;17.20;7.90;;;13.70;99.90;;;;;;4997677;28;20038;-76
2022/03/18 12:02:09;;;;;;;16.15;7.30;;;13.70;99.90;;;;;;5012245;28;20546;-75
2022/03/18 12:04:39;;;;;;;15.38;6.97;;;13.60;99.90;;;;;;5012219;28;20050;-75
2022/03/18 12:07:24;;;;;;;16.63;5.97;;;13.60;99.90;;;;;;4995636;28;20398;-75
2022/03/18 12:10:02;;;;;;;15.38;6.22;;;13.70;99.90;;;;;;4992745;28;20034;-75
2022/03/18 12:12:34;;;;;;;12.68;6.07;;;13.90;99.90;;;;;;5003701;28;20033;-76
2022/03/18 12:15:12;;;;;;;12.75;5.93;;;13.90;99.90;;;;;;5012704;28;20046;-75
2022/03/18 12:17:52;;;;;;;15.20;5.60;;;13.90;99.90;;;;;;5011952;28;20469;-75
2022/03/18 12:20:18;;;;;;;13.80;4.32;;;13.90;99.90;;;;;;5009737;28;20045;-75
2022/03/18 12:22:45;;;;;;;14.65;4.95;;;13.90;98.50;;;;;;5012407;28;20068;-75
2022/03/18 12:25:12;;;;;;;12.38;5.30;;;13.90;99.40;;;;;;4997154;28;20091;-75
2022/03/18 12:27:39;;;;;;;17.15;6.35;;;14.00;99.00;;;;;;4992608;28;20078;-75
2022/03/18 12:30:08;;;;;;;14.90;6.07;;;14.10;99.90;;;;;;4993844;28;20042;-76
2022/03/18 12:32:37;;;;;;;12.02;5.63;;;14.10;99.00;;;;;;4994105;28;20042;-75
2022/03/18 12:35:04;;;;;;;15.85;5.82;;;14.10;99.90;;;;;;4977482;28;20042;-76
2022/03/18 12:37:31;;;;;;;11.52;5.35;;;14.10;99.90;;;;;;4977265;28;20050;-76
2022/03/18 12:40:09;;;;;;;14.43;4.95;;;14.10;98.50;;;;;;5006300;28;20062;-75
2022/03/18 12:43:04;;;;;;;13.20;5.35;;;14.20;99.20;;;;;;5013134;28;20124;-75
2022/03/18 12:45:38;;;;;;;12.85;5.65;;;14.30;97.60;;;;;;4999707;28;20061;-75
2022/03/18 12:48:15;;;;;;;16.38;5.97;;;14.20;98.00;;;;;;5006334;28;20054;-75
2022/03/18 12:50:44;;;;;;;11.68;5.07;;;14.10;97.70;;;;;;5012032;28;20029;-75
2022/03/18 12:53:12;;;;;;;14.80;5.85;;;14.30;98.70;;;;;;4995431;28;20041;-75
2022/03/18 12:55:38;;;;;;;13.73;6.18;;;14.30;98.00;;;;;;5009558;28;20071;-75
2022/03/18 12:58:07;;;;;;;15.55;6.15;;;14.20;98.70;;;;;;5011418;28;20046;-75
2022/03/18 13:00:44;;;;;;;12.60;5.50;;;14.30;98.80;;;;;;5012985;28;20427;-75
2022/03/18 13:03:17;;;;;;;12.40;5.68;;;14.30;98.60;;;;;;5012064;28;20042;-75
2022/03/18 13:05:47;;;;;;;12.25;5.47;;;14.30;98.40;;;;;;5011515;28;20046;-76
2022/03/18 13:08:16;;;;;;;13.52;5.75;;;14.40;98.50;;;;;;5018284;28;20049;-75